Latest Weather Observations for Mackay

IDQ60801

Issued at 7:12 am EST Wednesday 23 October 2019 (issued every 10 minutes, with the page automatically refreshed every 10 minutes)

About weather observations | Map of weather stations | Latest weather observations for QLD | Other Formats
Station Details ID: 033119 Name: MACKAY M.O Lat: -21.12 Lon: 149.22 Height: 30.26 m
Data from the previous 72 hours. | See also: Recent months at Mackay
Date/Time
EST
Temp
°C
App
Temp
°C
Dew
Point
°C
Rel
Hum
%
Delta-T
°C
Wind Press
QNH
hPa
Press
MSL
hPa
Rain since
9am
mm
Dir  Spd
km/h
Gust
km/h
Spd
kts
Gust
kts
23/07:00am 23.6 21.5 14.6 57 5.3 ESE 19 33 10 18 1020.3 1020.1 0.0
23/06:30am 22.8 20.2 13.8 57 5.2 ESE 20 32 11 17 1020.1 1019.9 0.0
23/06:00am 22.5 20.2 14.6 61 4.7 SE 20 33 11 18 1019.8 1019.6 0.0
23/05:30am 22.3 19.9 14.4 61 4.6 SE 20 35 11 19 1019.6 1019.4 0.0
23/05:00am 22.3 20.4 15.2 64 4.2 SSE 19 35 10 19 1019.3 1019.1 0.0
23/04:30am 22.4 20.0 14.5 61 4.7 SE 20 37 11 20 1019.1 1018.9 0.0
23/04:00am 22.3 20.3 15.6 66 4.0 SE 20 35 11 19 1018.9 1018.7 0.0
23/03:30am 22.3 20.6 16.3 69 3.6 SE 20 32 11 17 1018.8 1018.6 0.0
23/03:00am 22.5 21.0 16.8 70 3.5 SE 20 35 11 19 1018.6 1018.4 0.0
23/02:30am 22.5 21.3 17.4 73 3.2 SE 20 32 11 17 1018.8 1018.6 0.0
23/02:00am 22.6 21.3 16.9 70 3.5 ESE 19 32 10 17 1019.2 1019.0 0.0
23/01:30am 22.7 21.7 16.5 68 3.8 ESE 17 33 9 18 1019.6 1019.4 0.0
23/01:00am 22.6 21.2 16.6 69 3.7 SE 19 32 10 17 1019.8 1019.6 0.0
23/12:30am 22.4 21.2 16.0 67 3.9 SE 17 32 9 17 1020.0 1019.8 0.0
23/12:00am 22.6 21.0 16.6 69 3.7 SE 20 32 11 17 1020.3 1020.1 0.0
 
Date/Time
EST
Temp
°C
App
Temp
°C
Dew
Point
°C
Rel
Hum
%
Delta-T
°C
Wind Press
QNH
hPa
Press
MSL
hPa
Rain since
9am
mm
Dir  Spd
km/h
Gust
km/h
Spd
kts
Gust
kts
22/11:30pm 22.6 21.7 16.9 70 3.5 ESE 17 28 9 15 1020.6 1020.4 0.0
22/11:00pm 22.8 21.7 17.3 71 3.4 ESE 19 30 10 16 1020.8 1020.6 0.0
22/10:30pm 22.9 21.9 17.6 72 3.3 ESE 19 30 10 16 1021.1 1020.9 0.0
22/10:00pm 22.9 21.7 17.1 70 3.6 ESE 19 33 10 18 1020.9 1020.7 0.0
22/09:30pm 23.1 22.0 17.8 72 3.3 ESE 20 33 11 18 1020.8 1020.6 0.0
22/09:00pm 23.1 21.8 17.3 70 3.6 ESE 20 33 11 18 1020.6 1020.4 0.0
22/08:30pm 23.1 21.7 16.9 68 3.8 ESE 20 35 11 19 1020.7 1020.5 0.0
22/08:00pm 23.2 22.0 17.0 68 3.8 ESE 19 30 10 16 1020.5 1020.3 0.0
22/07:30pm 23.2 21.9 16.7 67 4.0 ESE 19 28 10 15 1020.5 1020.3 0.0
22/07:00pm 23.3 22.0 16.8 67 4.0 ESE 19 33 10 18 1020.3 1020.1 0.0
22/06:30pm 23.2 21.4 15.5 62 4.6 ESE 19 30 10 16 1020.0 1019.8 0.0
22/06:00pm 23.3 21.7 15.9 63 4.5 ESE 19 28 10 15 1019.5 1019.3 0.0
22/05:30pm 23.6 22.1 15.4 60 4.9 ESE 17 28 9 15 1019.0 1018.8 0.0
22/05:00pm 23.9 22.4 16.2 62 4.7 ESE 19 33 10 18 1018.7 1018.5 0.0
22/04:30pm 24.1 22.3 15.9 60 5.0 ESE 20 32 11 17 1018.5 1018.3 0.0
22/04:00pm 24.6 23.1 16.8 62 4.8 ESE 20 32 11 17 1018.3 1018.1 0.0
22/03:30pm 24.9 24.1 17.1 62 4.8 ESE 17 28 9 15 1018.2 1018.0 0.0
22/03:00pm 26.0 24.9 16.3 55 6.0 SE 17 28 9 15 1018.2 1018.0 0.0
22/02:30pm 25.9 24.5 15.6 53 6.3 SE 17 30 9 16 1018.5 1018.3 0.0
22/02:00pm 26.1 24.8 15.8 53 6.3 ESE 17 32 9 17 1018.7 1018.5 0.0
22/01:30pm 27.2 26.3 16.8 53 6.5 SE 17 30 9 16 1018.9 1018.7 0.0
22/01:00pm 26.4 24.8 16.6 55 6.1 SE 20 32 11 17 1019.4 1019.2 0.0
22/12:30pm 27.5 26.1 17.1 53 6.5 SSE 20 32 11 17 1019.8 1019.6 0.0
22/12:00pm 26.9 25.3 16.5 53 6.4 SE 20 32 11 17 1020.3 1020.1 0.0
22/11:30am 26.1 24.4 15.8 53 6.3 SE 19 35 10 19 1020.5 1020.3 0.0
22/11:00am 26.9 25.3 17.4 56 5.9 SE 22 39 12 21 1020.7 1020.5 0.0
22/10:30am 27.0 25.8 17.5 56 6.0 SE 20 35 11 19 1021.0 1020.8 0.0
22/10:00am 26.7 25.4 17.2 56 5.9 SE 20 32 11 17 1021.3 1021.1 0.0
22/09:30am 26.0 24.8 17.4 59 5.4 SE 20 33 11 18 1021.4 1021.2 0.0
22/09:00am 25.5 24.1 16.9 59 5.3 SE 20 30 11 16 1021.6 1021.4 0.0
22/08:30am 25.2 24.2 17.9 64 4.6 SE 20 35 11 19 1021.4 1021.2 0.0
22/08:00am 24.3 23.1 17.5 66 4.2 SE 20 33 11 18 1021.1 1020.9 0.0
22/07:30am 24.2 23.1 17.7 67 4.1 SE 20 35 11 19 1020.9 1020.7 0.0
22/07:00am 24.0 22.7 17.3 66 4.1 SE 20 35 11 19 1020.6 1020.4 0.0
22/06:30am 23.6 22.2 16.9 66 4.1 SE 20 33 11 18 1020.3 1020.1 0.0
22/06:00am 23.1 22.4 17.3 70 3.6 ESE 17 30 9 16 1020.0 1019.8 0.0
22/05:30am 23.0 21.2 16.1 65 4.2 ESE 20 35 11 19 1019.9 1019.7 0.0
22/05:00am 22.9 21.3 16.4 67 3.9 SE 20 35 11 19 1019.7 1019.5 0.0
22/04:30am 23.0 20.9 16.3 66 4.1 SE 22 33 12 18 1019.5 1019.3 0.0
22/04:00am 23.0 22.1 16.8 68 3.8 ESE 17 30 9 16 1019.2 1019.0 0.0
22/03:30am 23.0 21.6 17.0 69 3.7 SE 20 33 11 18 1019.1 1018.9 0.0
22/03:00am 23.1 22.1 17.6 71 3.4 SE 19 30 10 16 1019.1 1018.9 0.0
22/02:30am 23.1 22.1 17.6 71 3.4 ESE 19 32 10 17 1019.1 1018.9 0.0
22/02:00am 23.3 22.4 17.7 71 3.5 ESE 19 33 10 18 1019.3 1019.1 0.0
22/01:30am 23.3 22.4 17.7 71 3.5 ESE 19 28 10 15 1019.6 1019.4 0.0
22/01:00am 23.3 22.9 18.0 72 3.3 ESE 17 30 9 16 1019.9 1019.7 0.0
22/12:30am 23.5 22.7 17.9 71 3.5 ESE 19 35 10 19 1020.1 1019.9 0.0
22/12:00am 23.5 22.6 17.7 70 3.6 ESE 19 33 10 18 1020.4 1020.2 0.0
 
Date/Time
EST
Temp
°C
App
Temp
°C
Dew
Point
°C
Rel
Hum
%
Delta-T
°C
Wind Press
QNH
hPa
Press
MSL
hPa
Rain since
9am
mm
Dir  Spd
km/h
Gust
km/h
Spd
kts
Gust
kts
21/11:30pm 23.7 22.7 17.9 70 3.6 ESE 20 33 11 18 1020.7 1020.5 0.0
21/11:00pm 23.7 22.6 17.7 69 3.7 ESE 20 37 11 20 1020.8 1020.6 0.0
21/10:30pm 23.8 22.8 18.0 70 3.6 ESE 20 39 11 21 1020.8 1020.6 0.0
21/10:00pm 23.7 22.9 18.1 71 3.5 ESE 19 35 10 19 1020.8 1020.6 0.0
21/09:30pm 23.8 22.6 18.4 72 3.4 ESE 22 35 12 19 1020.8 1020.6 0.0
21/09:00pm 23.7 22.6 17.7 69 3.7 ESE 20 35 11 19 1020.6 1020.4 0.0
21/08:30pm 23.8 23.2 18.4 72 3.4 ESE 19 32 10 17 1020.3 1020.1 0.0
21/08:00pm 23.7 23.3 18.1 71 3.5 ESE 17 30 9 16 1020.1 1019.9 0.0
21/07:30pm 23.7 23.1 18.4 72 3.3 ESE 19 32 10 17 1019.8 1019.6 0.0
21/07:00pm 23.8 23.8 18.9 74 3.1 ESE 17 30 9 16 1019.4 1019.2 0.0
21/06:30pm 23.8 23.2 18.4 72 3.4 ESE 19 32 10 17 1019.1 1018.9 0.0
21/06:00pm 23.9 23.2 18.3 71 3.5 ESE 19 33 10 18 1018.6 1018.4 0.0
21/05:30pm 24.0 23.2 18.4 71 3.5 ESE 20 32 11 17 1018.2 1018.0 0.0
21/05:00pm 24.9 24.5 18.8 69 3.9 SE 19 30 10 16 1018.0 1017.8 0.0
21/04:30pm 25.1 24.6 19.0 69 3.9 SE 20 32 11 17 1017.7 1017.5 0.0
21/04:00pm 25.5 24.8 18.7 66 4.3 SE 20 33 11 18 1017.7 1017.5 0.0
21/03:30pm 26.3 25.7 18.9 63 4.7 SE 20 35 11 19 1017.5 1017.3 0.0
21/03:00pm 26.2 25.5 18.6 63 4.8 SE 20 35 11 19 1017.5 1017.3 0.0
21/02:30pm 26.8 25.3 18.6 60 5.2 SE 24 39 13 21 1017.5 1017.3 0.0
21/02:00pm 27.3 26.6 19.4 62 5.1 SE 22 39 12 21 1017.8 1017.6 0.0
21/01:30pm 27.0 26.0 18.8 60 5.3 SE 22 35 12 19 1018.1 1017.9 0.0
21/01:00pm 26.8 26.0 19.2 63 4.9 SE 22 39 12 21 1018.4 1018.2 0.0
21/12:30pm 27.4 26.3 19.5 62 5.1 SE 24 37 13 20 1018.7 1018.5 0.0
21/12:00pm 26.9 25.7 19.3 63 4.9 SE 24 39 13 21 1019.1 1018.9 0.0
21/11:30am 27.2 25.8 18.8 60 5.4 SE 24 39 13 21 1019.2 1019.0 0.0
21/11:00am 26.7 25.1 18.3 60 5.3 SE 24 39 13 21 1019.4 1019.2 0.0
21/10:30am 27.1 25.7 18.9 61 5.3 SE 24 39 13 21 1019.8 1019.6 0.0
21/10:00am 27.0 26.5 19.9 65 4.6 SE 22 37 12 20 1019.7 1019.5 0.0
21/09:30am 26.4 24.9 19.5 66 4.5 SE 26 44 14 24 1019.7 1019.5 0.0
21/09:00am 26.1 25.1 19.7 68 4.1 SE 24 39 13 21 1019.8 1019.6 0.0
21/08:30am 25.3 24.2 19.4 70 3.8 SSE 24 39 13 21 1019.5 1019.3 0.0
21/08:00am 25.9 26.1 20.5 72 3.5 SE 20 35 11 19 1019.0 1018.8 0.0
21/07:30am 25.4 25.2 19.8 71 3.6 SE 20 30 11 16 1018.8 1018.6 0.0
21/07:00am 24.9 24.4 18.6 68 4.0 SSE 19 30 10 16 1018.3 1018.1 0.0
21/06:30am 24.3 24.6 19.6 75 3.0 SSE 17 30 9 16 1018.2 1018.0 0.0
21/06:00am 23.7 24.2 19.2 76 2.9 SE 15 26 8 14 1017.8 1017.6 0.0
21/05:30am 23.3 23.8 19.2 78 2.6 SE 15 24 8 13 1017.5 1017.3 0.0
21/05:00am 23.2 23.6 18.9 77 2.7 ESE 15 22 8 12 1017.0 1016.8 0.0
21/04:30am 23.0 24.1 19.6 81 2.2 SE 13 20 7 11 1016.7 1016.6 0.0
21/04:00am 22.0 23.3 19.4 85 1.7 SE 11 19 6 10 1016.3 1016.2 0.0
21/03:30am 20.2 21.8 19.2 94 0.6 SW 9 13 5 7 1016.3 1016.2 0.0
21/03:00am 20.3 22.4 19.3 94 0.6 WSW 7 13 4 7 1016.0 1015.9 0.0
21/02:30am 20.3 22.0 19.3 94 0.6 SW 9 13 5 7 1016.0 1015.9 0.0
21/02:00am 20.4 22.0 19.2 93 0.8 SW 9 13 5 7 1016.1 1016.0 0.0
21/01:30am 20.5 22.2 19.3 93 0.8 SW 9 11 5 6 1016.2 1016.1 0.0
21/01:00am 20.8 22.6 19.5 92 0.8 WSW 9 11 5 6 1016.3 1016.2 0.0
21/12:30am 21.0 22.9 19.7 92 0.8 WSW 9 9 5 5 1016.6 1016.5 0.0
21/12:00am 21.2 23.4 19.7 91 1.0 WSW 7 9 4 5 1016.9 1016.7 0.0
 
Date/Time
EST
Temp
°C
App
Temp
°C
Dew
Point
°C
Rel
Hum
%
Delta-T
°C
Wind Press
QNH
hPa
Press
MSL
hPa
Rain since
9am
mm
Dir  Spd
km/h
Gust
km/h
Spd
kts
Gust
kts
20/11:30pm 21.3 23.1 19.6 90 1.1 WSW 9 11 5 6 1017.2 1017.0 0.0
20/11:00pm 21.8 23.8 19.9 89 1.2 SW 9 9 5 5 1017.3 1017.1 0.0
20/10:30pm 22.4 24.7 19.8 85 1.7 SW 7 9 4 5 1017.2 1017.0 0.0
20/10:00pm 23.5 26.6 19.6 79 2.5 E 2 7 1 4 1017.2 1017.0 0.0
20/09:30pm 23.7 26.3 20.0 80 2.4 E 6 7 3 4 1017.0 1016.8 0.0
20/09:00pm 23.7 26.6 19.8 79 2.5 ENE 4 9 2 5 1016.9 1016.7 0.0
20/08:30pm 23.3 26.2 19.9 81 2.2 NE 4 9 2 5 1016.5 1016.4 0.0
20/08:00pm 23.5 26.1 20.0 81 2.3 NNE 6 9 3 5 1016.2 1016.1 0.0
20/07:30pm 23.6 26.1 19.9 80 2.4 NNE 6 11 3 6 1015.9 1015.8 0.0
20/07:00pm 23.7 26.6 19.8 79 2.5 N 4 9 2 5 1015.5 1015.4 0.0
20/06:30pm 24.2 26.5 19.9 77 2.8 NNE 7 11 4 6 1015.0 1014.9 0.0
20/06:00pm 24.7 26.5 19.5 73 3.3 NNE 9 15 5 8 1014.7 1014.6 0.0
20/05:30pm 25.3 26.9 19.9 72 3.5 NNE 11 19 6 10 1014.3 1014.2 0.0
20/05:00pm 25.7 27.0 19.3 67 4.1 NNE 11 19 6 10 1014.1 1014.0 0.0
20/04:30pm 26.7 28.5 19.6 65 4.6 NE 9 17 5 9 1013.9 1013.8 0.0
20/04:00pm 28.2 30.1 20.5 63 5.1 NE 11 19 6 10 1013.8 1013.7 0.0
20/03:30pm 28.2 30.4 20.5 63 5.1 NNE 9 17 5 9 1013.9 1013.8 0.0
20/03:00pm 29.4 31.4 20.8 60 5.7 NNE 11 20 6 11 1013.6 1013.5 0.0
20/02:30pm 29.4 31.3 20.5 58 5.9 NNE 11 22 6 12 1014.1 1014.0 0.0
20/02:00pm 28.9 30.2 20.1 59 5.8 NNE 13 24 7 13 1014.2 1014.1 0.0
20/01:30pm 29.6 31.2 20.7 58 5.9 NNE 13 20 7 11 1014.4 1014.3 0.0
20/01:00pm 29.4 31.3 20.5 58 5.9 NNE 11 20 6 11 1014.8 1014.7 0.0
20/12:30pm 29.3 31.8 21.8 64 5.1 NE 11 20 6 11 1015.2 1015.1 0.0
20/12:00pm 25.9 27.9 20.7 73 3.4 E 11 17 6 9 1015.7 1015.6 0.0
20/11:30am 26.3 28.5 20.4 70 3.9 ENE 9 17 5 9 1015.9 1015.8 0.0
20/11:00am 25.5 28.6 21.0 76 3.0 SSW 6 9 3 5 1016.1 1016.0 0.0
20/10:30am 23.8 25.8 20.7 83 2.0 S 11 15 6 8 1016.3 1016.2 0.0
20/10:00am 24.6 26.8 20.3 77 2.8 SSE 9 11 5 6 1016.5 1016.4 0.0
20/09:30am 25.5 27.7 20.3 73 3.4 SW 9 15 5 8 1016.4 1016.3 0.0
20/09:00am 24.0 25.7 20.1 79 2.5 S 11 19 6 10 1016.6 1016.5 0.0
20/08:30am 24.9 27.4 21.0 79 2.6 SW 9 15 5 8 1016.4 1016.3 0.0
20/08:00am 23.3 25.6 20.6 85 1.8 SSW 9 13 5 7 1016.2 1016.1 0.0
20/07:30am 22.9 25.7 20.4 86 1.6 SSW 6 9 3 5 1016.0 1015.9 0.0

Other formats

Comma delimited format used in spreadsheet applications
http://www.bom.gov.au/fwo/IDQ60801/IDQ60801.94367.axf

JavaScript Object Notation format (JSON) in row-major order
http://www.bom.gov.au/fwo/IDQ60801/IDQ60801.94367.json

Data quality

Most of these data are generated automatically and are frequently updated. Quality checks on data are not normally performed. It is possible for incorrect values to appear. Refer to information at About Latest Weather Observations and please check the disclaimer before using these data.